createdAt,value
2018-02-26T00:00:14.044Z,0.00
2018-02-26T00:01:14.020Z,0.00
2018-02-26T00:02:14.000Z,0.00
2018-02-26T00:03:13.969Z,0.00
2018-02-26T00:04:13.950Z,0.00
2018-02-26T00:05:13.921Z,0.00
2018-02-26T00:06:13.891Z,0.00
2018-02-26T00:07:13.865Z,0.00
2018-02-26T00:08:13.841Z,0.00
2018-02-26T00:09:13.812Z,0.00
2018-02-26T00:10:13.792Z,0.00
2018-02-26T00:11:13.761Z,0.00
2018-02-26T00:12:13.753Z,0.00
2018-02-26T00:13:13.711Z,0.00
2018-02-26T00:14:13.683Z,0.00
2018-02-26T00:15:13.658Z,0.00
2018-02-26T00:16:13.629Z,0.00
2018-02-26T00:17:13.610Z,0.00
2018-02-26T00:18:13.578Z,0.00
2018-02-26T00:19:13.558Z,0.00
2018-02-26T00:20:13.530Z,0.00
2018-02-26T00:21:13.498Z,0.00
2018-02-26T00:22:13.474Z,0.00
2018-02-26T00:23:13.461Z,0.00
2018-02-26T00:24:13.423Z,0.00
2018-02-26T00:25:13.397Z,0.00
2018-02-26T00:26:13.371Z,0.00
2018-02-26T00:27:13.346Z,0.00
2018-02-26T00:28:13.320Z,0.00
2018-02-26T00:29:13.294Z,0.00
2018-02-26T00:30:13.270Z,0.00
2018-02-26T00:31:13.240Z,0.00
2018-02-26T00:32:13.216Z,0.00
2018-02-26T00:33:13.195Z,0.00
2018-02-26T00:34:13.173Z,0.00
2018-02-26T00:35:13.139Z,0.00
2018-02-26T00:36:13.110Z,0.00
2018-02-26T00:37:13.092Z,0.00
2018-02-26T00:38:13.064Z,0.00
2018-02-26T00:39:13.031Z,0.00
2018-02-26T00:40:13.011Z,0.00
2018-02-26T00:41:12.978Z,0.00
2018-02-26T00:42:12.958Z,0.00
2018-02-26T00:43:12.929Z,0.00
2018-02-26T00:44:12.900Z,0.00
2018-02-26T00:45:12.874Z,0.00
2018-02-26T00:46:12.849Z,0.00
2018-02-26T00:47:12.827Z,0.00
2018-02-26T00:48:12.812Z,0.00
2018-02-26T00:49:12.768Z,0.00
2018-02-26T00:50:12.751Z,0.00
2018-02-26T00:51:12.720Z,0.00
2018-02-26T00:52:12.691Z,0.00
2018-02-26T00:53:12.670Z,0.00
2018-02-26T00:54:12.640Z,0.00
2018-02-26T00:55:12.620Z,0.00
2018-02-26T00:56:12.600Z,0.00
2018-02-26T00:57:12.560Z,0.00
2018-02-26T00:58:12.543Z,0.00
2018-02-26T00:59:12.509Z,0.00
2018-02-26T01:00:12.480Z,0.00
2018-02-26T01:01:12.451Z,0.00
2018-02-26T01:02:12.430Z,0.00
2018-02-26T01:03:12.399Z,0.00
2018-02-26T01:04:12.379Z,0.00
2018-02-26T01:05:12.347Z,0.00
2018-02-26T01:06:12.332Z,0.00
2018-02-26T01:07:12.299Z,0.00
2018-02-26T01:08:12.272Z,0.00
2018-02-26T01:09:12.242Z,0.00
2018-02-26T01:10:12.216Z,0.00
2018-02-26T01:11:12.190Z,0.00
2018-02-26T01:12:12.169Z,0.00
2018-02-26T01:13:12.141Z,0.00
2018-02-26T01:14:12.112Z,0.00
2018-02-26T01:15:12.092Z,0.00
2018-02-26T01:16:12.062Z,0.00
2018-02-26T01:17:12.039Z,0.00
2018-02-26T01:18:12.009Z,0.00
2018-02-26T01:19:11.989Z,0.00
2018-02-26T01:20:11.962Z,0.00
2018-02-26T01:21:11.935Z,0.00
2018-02-26T01:22:11.915Z,0.00
2018-02-26T01:23:11.883Z,0.00
2018-02-26T01:24:11.861Z,0.00
2018-02-26T01:25:11.827Z,0.00
2018-02-26T01:26:11.798Z,0.00
2018-02-26T01:27:11.773Z,0.00
2018-02-26T01:28:11.751Z,0.00
2018-02-26T01:29:11.719Z,0.00
2018-02-26T01:30:11.704Z,0.00
2018-02-26T01:31:11.670Z,0.00
2018-02-26T01:32:11.645Z,0.00
2018-02-26T01:33:11.620Z,0.00
2018-02-26T01:34:11.589Z,0.00
2018-02-26T01:35:11.562Z,0.00
2018-02-26T01:36:11.542Z,0.00
2018-02-26T01:37:11.511Z,0.00
2018-02-26T01:38:11.487Z,0.00
2018-02-26T01:39:11.458Z,0.00
2018-02-26T01:40:11.433Z,0.00
2018-02-26T01:41:11.421Z,0.00
2018-02-26T01:42:11.381Z,0.00
2018-02-26T01:43:11.414Z,0.00
2018-02-26T01:44:11.334Z,0.00
2018-02-26T01:45:11.307Z,0.00
2018-02-26T01:46:11.278Z,0.00
2018-02-26T01:47:11.263Z,0.00
2018-02-26T01:48:11.226Z,0.00
2018-02-26T01:49:11.197Z,0.00
2018-02-26T01:50:11.170Z,0.00
2018-02-26T01:51:11.151Z,0.00
2018-02-26T01:52:11.127Z,0.00
2018-02-26T01:53:11.098Z,0.00
2018-02-26T01:54:11.071Z,0.00
2018-02-26T01:55:11.038Z,0.00
2018-02-26T01:56:11.014Z,0.00
2018-02-26T01:57:10.987Z,0.00
2018-02-26T01:58:10.960Z,0.00
2018-02-26T01:59:10.938Z,0.00
2018-02-26T02:00:10.911Z,0.00
2018-02-26T02:01:10.884Z,0.00
2018-02-26T02:02:10.861Z,0.00
2018-02-26T02:03:10.830Z,0.00
2018-02-26T02:04:10.811Z,0.00
2018-02-26T02:05:10.781Z,0.00
2018-02-26T02:06:10.752Z,0.00
2018-02-26T02:07:10.727Z,0.00
2018-02-26T02:08:10.701Z,0.00
2018-02-26T02:09:10.679Z,0.00
2018-02-26T02:10:10.649Z,0.00
2018-02-26T02:11:10.621Z,0.00
2018-02-26T02:12:10.600Z,0.00
2018-02-26T02:13:10.568Z,0.00
2018-02-26T02:14:10.549Z,0.00
2018-02-26T02:15:10.530Z,0.00
2018-02-26T02:16:10.488Z,0.00
2018-02-26T02:17:10.465Z,0.00
2018-02-26T02:18:10.440Z,0.00
2018-02-26T02:19:10.409Z,0.00
2018-02-26T02:20:10.384Z,0.00
2018-02-26T02:21:10.359Z,0.00
2018-02-26T02:22:10.334Z,0.00
2018-02-26T02:23:10.306Z,0.00
2018-02-26T02:24:10.278Z,0.00
2018-02-26T02:25:10.263Z,0.00
2018-02-26T02:26:10.230Z,0.00
2018-02-26T02:27:10.201Z,0.00
2018-02-26T02:28:10.177Z,0.00
2018-02-26T02:29:10.150Z,0.00
2018-02-26T02:30:10.121Z,0.00
2018-02-26T02:31:10.100Z,0.00
2018-02-26T02:32:10.070Z,0.00
2018-02-26T02:33:10.043Z,0.00
2018-02-26T02:34:10.020Z,0.00
2018-02-26T02:35:09.991Z,0.00
2018-02-26T02:36:09.971Z,0.00
2018-02-26T02:37:09.939Z,0.00
2018-02-26T02:38:09.909Z,0.00
2018-02-26T02:39:09.885Z,0.00
2018-02-26T02:40:09.859Z,0.00
2018-02-26T02:41:09.837Z,0.00
2018-02-26T02:42:09.810Z,0.00
2018-02-26T02:43:09.780Z,0.00
2018-02-26T02:44:09.754Z,0.00
2018-02-26T02:45:09.728Z,0.00
2018-02-26T02:46:09.715Z,0.00
2018-02-26T02:47:09.694Z,0.00
2018-02-26T02:48:09.652Z,0.00
2018-02-26T02:49:09.632Z,0.00
2018-02-26T02:50:09.602Z,0.00
2018-02-26T02:51:09.572Z,0.00
2018-02-26T02:52:09.548Z,0.00
2018-02-26T02:53:09.529Z,0.00
2018-02-26T02:54:09.503Z,0.00
2018-02-26T02:55:09.476Z,0.00
2018-02-26T02:56:09.450Z,0.00
2018-02-26T02:57:09.414Z,0.00
2018-02-26T02:58:09.402Z,0.00
2018-02-26T02:59:09.367Z,0.00
2018-02-26T03:00:09.336Z,0.00
2018-02-26T03:01:09.310Z,0.00
2018-02-26T03:02:09.286Z,0.00
2018-02-26T03:03:09.261Z,0.00
2018-02-26T03:04:09.235Z,0.00
2018-02-26T03:05:09.210Z,0.00
2018-02-26T03:06:09.182Z,0.00
2018-02-26T03:07:09.154Z,0.00
2018-02-26T03:08:09.130Z,0.00
2018-02-26T03:09:09.109Z,0.00
2018-02-26T03:10:09.077Z,0.00
2018-02-26T03:11:09.055Z,0.00
2018-02-26T03:12:09.028Z,0.00
2018-02-26T03:13:09.000Z,0.00
2018-02-26T03:14:08.976Z,0.00
2018-02-26T03:15:08.951Z,0.00
2018-02-26T03:16:08.921Z,0.00
2018-02-26T03:17:08.895Z,0.00
2018-02-26T03:18:08.869Z,0.00
2018-02-26T03:19:08.847Z,0.00
2018-02-26T03:20:08.827Z,0.00
2018-02-26T03:21:08.793Z,0.00
2018-02-26T03:22:08.768Z,0.00
2018-02-26T03:23:08.740Z,0.00
2018-02-26T03:24:08.712Z,0.00
2018-02-26T03:25:08.686Z,0.00
2018-02-26T03:26:08.664Z,0.00
2018-02-26T03:27:08.635Z,0.00
2018-02-26T03:28:08.611Z,0.00
2018-02-26T03:29:08.585Z,0.00
2018-02-26T03:30:08.561Z,0.00
2018-02-26T03:31:08.541Z,0.00
2018-02-26T03:32:08.506Z,0.00
2018-02-26T03:33:08.480Z,0.00
2018-02-26T03:34:08.458Z,0.00
2018-02-26T03:35:08.435Z,0.00
2018-02-26T03:36:08.402Z,0.00
2018-02-26T03:37:08.381Z,0.00
2018-02-26T03:38:08.348Z,0.00
2018-02-26T03:39:08.325Z,0.00
2018-02-26T03:40:08.306Z,0.00
2018-02-26T03:41:08.270Z,0.00
2018-02-26T03:42:08.244Z,0.00
2018-02-26T03:43:08.227Z,0.00
2018-02-26T03:44:08.193Z,0.00
2018-02-26T03:45:08.165Z,0.00
2018-02-26T03:46:08.142Z,0.00
2018-02-26T03:47:08.120Z,0.00
2018-02-26T03:48:08.088Z,0.00
2018-02-26T03:49:08.060Z,0.00
2018-02-26T03:50:08.044Z,0.00
2018-02-26T03:51:08.011Z,0.00
2018-02-26T03:52:07.980Z,0.00
2018-02-26T03:53:08.060Z,0.00
2018-02-26T03:54:07.930Z,0.00
2018-02-26T03:55:07.952Z,0.00
2018-02-26T03:56:07.878Z,0.00
2018-02-26T03:57:07.857Z,0.00
2018-02-26T03:58:07.823Z,0.00
2018-02-26T03:59:07.799Z,0.00
2018-02-26T04:00:07.771Z,0.00
2018-02-26T04:01:07.758Z,0.00
2018-02-26T04:02:07.720Z,0.00
2018-02-26T04:03:07.697Z,0.00
2018-02-26T04:04:07.669Z,0.00
2018-02-26T04:05:07.640Z,0.00
2018-02-26T04:06:07.614Z,0.00
2018-02-26T04:07:07.592Z,0.00
2018-02-26T04:08:07.559Z,0.00
2018-02-26T04:09:07.532Z,0.00
2018-02-26T04:10:07.506Z,0.00
2018-02-26T04:11:07.480Z,0.00
2018-02-26T04:12:07.454Z,0.00
2018-02-26T04:13:07.434Z,0.00
2018-02-26T04:14:07.399Z,0.00
2018-02-26T04:15:07.376Z,0.00
2018-02-26T04:16:07.350Z,0.00
2018-02-26T04:17:07.331Z,0.00
2018-02-26T04:18:07.299Z,0.00
2018-02-26T04:19:07.271Z,0.00
2018-02-26T04:20:07.251Z,0.00
2018-02-26T04:21:07.222Z,0.00
2018-02-26T04:22:07.191Z,0.00
2018-02-26T04:23:07.169Z,0.00
2018-02-26T04:24:07.143Z,0.00
2018-02-26T04:25:07.116Z,0.00
2018-02-26T04:26:07.088Z,0.00
2018-02-26T04:27:07.060Z,0.00
2018-02-26T04:28:07.041Z,0.00
2018-02-26T04:29:07.007Z,0.00
2018-02-26T04:30:06.984Z,0.00
2018-02-26T04:31:06.957Z,0.00
2018-02-26T04:32:06.927Z,0.00
2018-02-26T04:33:06.914Z,0.00
2018-02-26T04:34:06.888Z,0.00
2018-02-26T04:35:06.852Z,0.00
2018-02-26T04:36:06.819Z,0.00
2018-02-26T04:37:06.799Z,0.00
2018-02-26T04:38:06.772Z,0.00
2018-02-26T04:39:06.739Z,0.00
2018-02-26T04:40:06.719Z,0.00
2018-02-26T04:41:06.687Z,0.00
2018-02-26T04:42:06.665Z,0.00
2018-02-26T04:43:06.639Z,0.00
2018-02-26T04:44:06.610Z,0.00
2018-02-26T04:45:06.585Z,0.00
2018-02-26T04:46:06.561Z,0.00
2018-02-26T04:47:06.528Z,0.00
2018-02-26T04:48:06.499Z,0.00
2018-02-26T04:49:06.473Z,0.00
2018-02-26T04:50:06.452Z,0.00
2018-02-26T04:51:06.432Z,0.00
2018-02-26T04:52:06.399Z,0.00
2018-02-26T04:53:06.372Z,0.00
2018-02-26T04:54:06.344Z,0.00
2018-02-26T04:55:06.316Z,0.00
2018-02-26T04:56:06.297Z,0.00
2018-02-26T04:57:06.267Z,0.00
2018-02-26T04:58:06.244Z,0.00
2018-02-26T04:59:06.210Z,0.00
2018-02-26T05:00:06.187Z,0.00
2018-02-26T05:01:06.158Z,0.00
2018-02-26T05:02:06.180Z,0.00
2018-02-26T05:03:06.110Z,0.00
2018-02-26T05:04:06.218Z,0.00
2018-02-26T05:05:06.062Z,0.00
2018-02-26T05:06:06.053Z,0.00
2018-02-26T05:07:06.002Z,0.00
2018-02-26T05:08:06.068Z,0.00
2018-02-26T05:09:05.949Z,0.00
2018-02-26T05:10:05.927Z,0.00
2018-02-26T05:11:05.898Z,0.00
2018-02-26T05:12:05.870Z,0.00
2018-02-26T05:13:05.841Z,0.00
2018-02-26T05:14:05.818Z,0.00
2018-02-26T05:15:05.802Z,0.00
2018-02-26T05:16:05.772Z,0.00
2018-02-26T05:17:05.739Z,0.00
2018-02-26T05:18:05.715Z,0.00
2018-02-26T05:19:05.689Z,0.00
2018-02-26T05:20:05.659Z,0.00
2018-02-26T05:21:05.642Z,0.00
2018-02-26T05:22:05.609Z,0.00
2018-02-26T05:23:05.579Z,0.00
2018-02-26T05:24:05.569Z,0.00
2018-02-26T05:25:05.529Z,0.00
2018-02-26T05:26:05.507Z,0.00
2018-02-26T05:27:05.479Z,0.00
2018-02-26T05:28:05.452Z,0.00
2018-02-26T05:29:05.428Z,0.00
2018-02-26T05:30:05.403Z,0.00
2018-02-26T05:31:05.375Z,0.00
2018-02-26T05:32:05.344Z,0.00
2018-02-26T05:33:05.320Z,0.00
2018-02-26T05:34:05.293Z,0.00
2018-02-26T05:35:05.273Z,0.00
2018-02-26T05:36:05.249Z,0.00
2018-02-26T05:37:05.227Z,0.00
2018-02-26T05:38:05.189Z,0.00
2018-02-26T05:39:05.174Z,0.00
2018-02-26T05:40:05.149Z,0.00
2018-02-26T05:41:05.114Z,0.00
2018-02-26T05:42:05.082Z,0.00
2018-02-26T05:43:05.058Z,0.00
2018-02-26T05:44:05.040Z,0.00
2018-02-26T05:45:05.003Z,0.00
2018-02-26T05:46:04.978Z,0.00
2018-02-26T05:47:04.955Z,0.00
2018-02-26T05:48:04.925Z,0.00
2018-02-26T05:49:04.902Z,0.00
2018-02-26T05:50:04.878Z,0.00
2018-02-26T05:51:04.850Z,0.00
2018-02-26T05:52:04.829Z,0.00
2018-02-26T05:53:04.804Z,0.00
2018-02-26T05:54:04.775Z,0.00
2018-02-26T05:55:04.749Z,0.00
2018-02-26T05:56:04.726Z,0.00
2018-02-26T05:57:04.688Z,4.00
2018-02-26T05:58:04.662Z,0.00
2018-02-26T05:59:04.640Z,0.00
2018-02-26T06:00:04.620Z,4.00
2018-02-26T06:01:04.590Z,0.00
2018-02-26T06:02:04.563Z,4.00
2018-02-26T06:03:04.542Z,4.00
2018-02-26T06:04:04.506Z,4.00
2018-02-26T06:05:04.583Z,4.00
2018-02-26T06:06:04.456Z,4.00
2018-02-26T06:07:04.428Z,4.00
2018-02-26T06:08:04.410Z,8.00
2018-02-26T06:09:04.389Z,8.00
2018-02-26T06:10:04.351Z,12.00
2018-02-26T06:11:04.324Z,16.00
2018-02-26T06:12:04.295Z,16.00
2018-02-26T06:13:04.276Z,20.00
2018-02-26T06:14:04.245Z,20.00
2018-02-26T06:15:04.326Z,28.00
2018-02-26T06:16:04.197Z,28.00
2018-02-26T06:17:04.173Z,36.00
2018-02-26T06:18:04.140Z,44.00
2018-02-26T06:19:04.112Z,44.00
2018-02-26T06:20:04.085Z,52.00
2018-02-26T06:21:04.056Z,56.00
2018-02-26T06:22:04.030Z,68.00
2018-02-26T06:23:04.006Z,76.00
2018-02-26T06:24:03.977Z,80.00
2018-02-26T06:25:03.955Z,96.00
2018-02-26T06:26:03.926Z,132.00
2018-02-26T06:27:03.899Z,180.00
2018-02-26T06:28:03.877Z,224.00
2018-02-26T06:29:03.847Z,272.00
2018-02-26T06:30:03.816Z,300.00
2018-02-26T06:31:03.793Z,320.00
2018-02-26T06:32:03.768Z,352.00
2018-02-26T06:33:03.737Z,368.00
2018-02-26T06:34:03.712Z,400.00
2018-02-26T06:35:03.691Z,456.00
2018-02-26T06:36:03.658Z,496.00
2018-02-26T06:37:03.635Z,540.00
2018-02-26T06:38:03.610Z,648.00
2018-02-26T06:39:03.581Z,724.00
2018-02-26T06:40:03.553Z,804.00
2018-02-26T06:41:03.528Z,828.00
2018-02-26T06:42:03.499Z,892.00
2018-02-26T06:43:03.472Z,920.00
2018-02-26T06:44:03.550Z,1004.00
2018-02-26T06:45:03.420Z,1060.00
2018-02-26T06:46:03.392Z,1196.00
2018-02-26T06:47:03.367Z,1220.00
2018-02-26T06:48:03.339Z,1296.00
2018-02-26T06:49:03.321Z,1388.00
2018-02-26T06:50:03.285Z,1636.00
2018-02-26T06:51:03.261Z,2536.00
2018-02-26T06:52:03.238Z,4440.00
2018-02-26T06:53:03.208Z,2124.00
2018-02-26T06:54:03.185Z,2204.00
2018-02-26T06:55:03.156Z,2088.00
2018-02-26T06:56:03.128Z,1860.00
2018-02-26T06:57:03.101Z,1956.00
2018-02-26T06:58:03.079Z,1672.00
2018-02-26T06:59:03.059Z,1904.00
2018-02-26T07:00:03.026Z,2664.00
2018-02-26T07:01:02.998Z,2052.00
2018-02-26T07:02:02.982Z,2096.00
2018-02-26T07:03:02.959Z,2256.00
2018-02-26T07:04:02.923Z,1856.00
2018-02-26T07:05:02.900Z,1972.00
2018-02-26T07:06:02.869Z,2196.00
2018-02-26T07:07:02.843Z,3112.00
2018-02-26T07:08:02.818Z,8468.00
2018-02-26T07:09:02.795Z,17632.00
2018-02-26T07:10:02.816Z,10704.00
2018-02-26T07:11:02.741Z,13728.00
2018-02-26T07:12:02.818Z,6668.00
2018-02-26T07:13:02.696Z,24352.00
2018-02-26T07:14:02.751Z,26784.00
2018-02-26T07:15:02.651Z,24640.00
2018-02-26T07:16:02.721Z,19936.00
2018-02-26T07:17:02.598Z,28992.00
2018-02-26T07:18:02.728Z,27680.00
2018-02-26T07:19:02.558Z,30240.00
2018-02-26T07:20:02.535Z,13024.00
2018-02-26T07:21:02.508Z,12096.00
2018-02-26T07:22:02.490Z,23552.00
2018-02-26T07:23:02.470Z,28608.00
2018-02-26T07:24:02.453Z,28224.00
2018-02-26T07:25:02.428Z,30368.00
2018-02-26T07:26:02.411Z,34880.00
2018-02-26T07:27:02.387Z,34464.00
2018-02-26T07:28:02.467Z,30944.00
2018-02-26T07:29:02.351Z,12480.00
2018-02-26T07:30:02.327Z,18016.00
2018-02-26T07:31:02.310Z,32544.00
2018-02-26T07:32:02.292Z,34624.00
2018-02-26T07:33:02.268Z,8700.00
2018-02-26T07:34:02.353Z,19616.00
2018-02-26T07:35:02.284Z,34304.00
2018-02-26T07:36:02.220Z,20672.00
2018-02-26T07:37:02.201Z,31776.00
2018-02-26T07:38:02.314Z,33536.00
2018-02-26T07:39:02.163Z,31072.00
2018-02-26T07:40:02.186Z,32256.00
2018-02-26T07:41:02.121Z,8212.00
2018-02-26T07:42:02.215Z,24224.00
2018-02-26T07:43:02.088Z,14208.00
2018-02-26T07:44:02.069Z,42080.00
2018-02-26T07:45:02.060Z,45184.00
2018-02-26T07:46:02.039Z,41920.00
2018-02-26T07:47:02.023Z,36448.00
2018-02-26T07:48:02.047Z,31040.00
2018-02-26T07:49:01.990Z,17024.00
2018-02-26T07:50:01.972Z,46912.00
2018-02-26T07:51:01.963Z,12160.00
2018-02-26T07:52:01.938Z,17600.00
2018-02-26T07:53:01.921Z,15328.00
2018-02-26T07:54:01.903Z,39008.00
2018-02-26T07:55:01.890Z,49184.00
2018-02-26T07:56:01.872Z,48576.00
2018-02-26T07:57:01.866Z,46688.00
2018-02-26T07:58:01.840Z,47232.00
2018-02-26T07:59:01.829Z,47936.00
2018-02-26T08:00:01.812Z,48960.00
2018-02-26T08:01:01.803Z,48544.00
2018-02-26T08:02:01.788Z,46240.00
2018-02-26T08:03:01.770Z,43648.00
2018-02-26T08:04:01.761Z,51584.00
2018-02-26T08:05:01.749Z,21920.00
2018-02-26T08:06:01.735Z,53120.00
2018-02-26T08:07:01.718Z,56384.00
2018-02-26T08:08:01.713Z,51040.00
2018-02-26T08:09:01.744Z,49824.00
2018-02-26T08:10:01.688Z,51360.00
2018-02-26T08:11:01.673Z,52160.00
2018-02-26T08:12:01.662Z,53440.00
2018-02-26T08:13:01.649Z,51392.00
2018-02-26T08:14:01.639Z,51968.00
2018-02-26T08:15:01.633Z,48416.00
2018-02-26T08:16:01.621Z,49984.00
2018-02-26T08:17:01.609Z,45280.00
2018-02-26T08:18:01.599Z,52896.00
2018-02-26T08:19:01.589Z,22944.00
2018-02-26T08:20:01.579Z,55232.00
2018-02-26T08:21:01.571Z,48832.00
2018-02-26T08:22:01.559Z,54656.00
2018-02-26T08:23:01.543Z,31744.00
2018-02-26T08:24:01.536Z,48992.00
2018-02-26T08:25:01.589Z,26784.00
2018-02-26T08:26:01.523Z,48256.00
2018-02-26T08:27:01.506Z,50624.00
2018-02-26T08:28:01.495Z,46944.00
2018-02-26T08:29:01.484Z,47328.00
2018-02-26T08:30:01.475Z,46784.00
2018-02-26T08:31:01.469Z,18400.00
2018-02-26T08:32:01.468Z,46592.00
2018-02-26T08:33:01.442Z,46176.00
2018-02-26T08:34:01.433Z,43616.00
2018-02-26T08:35:01.427Z,52064.00
2018-02-26T08:36:01.476Z,42752.00
2018-02-26T08:37:01.406Z,45472.00
2018-02-26T08:38:01.398Z,45152.00
2018-02-26T08:39:01.389Z,49728.00
2018-02-26T08:40:01.390Z,51008.00
2018-02-26T08:41:01.369Z,48384.00
2018-02-26T08:42:01.359Z,48736.00
2018-02-26T08:43:01.350Z,52032.00
2018-02-26T08:44:01.340Z,56416.00
2018-02-26T08:45:01.332Z,50848.00
2018-02-26T08:46:01.330Z,59232.00
2018-02-26T08:47:01.325Z,7784.00
2018-02-26T08:48:01.307Z,9000.00
2018-02-26T08:49:01.297Z,60832.00
2018-02-26T08:50:01.283Z,8676.00
2018-02-26T08:51:01.274Z,7084.00
2018-02-26T08:52:01.258Z,6188.00
2018-02-26T08:53:01.249Z,5128.00
2018-02-26T08:54:01.235Z,4728.00
2018-02-26T08:55:01.220Z,4280.00
2018-02-26T08:56:01.220Z,2816.00
2018-02-26T08:57:01.189Z,2560.00
2018-02-26T08:58:01.176Z,3520.00
2018-02-26T08:59:01.156Z,5572.00
2018-02-26T09:00:01.143Z,3804.00
2018-02-26T09:01:01.133Z,5384.00
2018-02-26T09:02:01.105Z,5116.00
2018-02-26T09:03:01.197Z,5180.00
2018-02-26T09:04:01.070Z,6820.00
2018-02-26T09:05:01.171Z,17504.00
2018-02-26T09:06:01.042Z,5000.00
2018-02-26T09:07:01.022Z,4756.00
2018-02-26T09:08:01.000Z,5464.00
2018-02-26T09:09:01.032Z,4344.00
2018-02-26T09:10:00.974Z,4124.00
2018-02-26T09:11:01.050Z,4536.00
2018-02-26T09:12:00.924Z,4428.00
2018-02-26T09:13:00.902Z,4164.00
2018-02-26T09:14:00.878Z,5204.00
2018-02-26T09:15:00.958Z,3812.00
2018-02-26T09:16:00.841Z,3664.00
2018-02-26T09:17:00.866Z,3392.00
2018-02-26T09:18:00.800Z,3468.00
2018-02-26T09:19:00.924Z,3448.00
2018-02-26T09:20:00.758Z,3088.00
2018-02-26T09:21:00.839Z,2876.00
2018-02-26T09:22:00.720Z,2720.00
2018-02-26T09:23:00.794Z,2468.00
2018-02-26T09:24:00.668Z,2336.00
2018-02-26T09:25:00.718Z,2908.00
2018-02-26T09:26:00.630Z,2384.00
2018-02-26T09:27:00.618Z,1972.00
2018-02-26T09:28:00.590Z,1964.00
2018-02-26T09:29:00.579Z,1972.00
2018-02-26T09:30:00.544Z,1964.00
2018-02-26T09:31:00.642Z,1824.00
2018-02-26T09:32:00.502Z,2388.00
2018-02-26T09:33:00.484Z,2124.00
2018-02-26T09:34:00.449Z,2560.00
2018-02-26T09:35:00.430Z,4388.00
2018-02-26T09:36:00.407Z,8220.00
2018-02-26T09:37:00.399Z,7836.00
2018-02-26T09:38:00.361Z,6468.00
2018-02-26T09:39:00.341Z,4500.00
2018-02-26T09:40:00.316Z,3376.00
2018-02-26T09:41:00.295Z,3476.00
2018-02-26T09:42:00.318Z,4200.00
2018-02-26T09:43:00.248Z,2968.00
2018-02-26T09:44:00.229Z,3396.00
2018-02-26T09:45:00.206Z,3064.00
2018-02-26T09:46:00.177Z,2428.00
2018-02-26T09:47:00.160Z,2780.00
2018-02-26T09:48:00.147Z,2924.00
2018-02-26T09:49:00.110Z,2524.00
2018-02-26T09:50:00.089Z,2572.00
2018-02-26T09:51:00.071Z,2656.00
2018-02-26T09:52:00.059Z,2792.00
2018-02-26T09:53:00.022Z,5044.00
2018-02-26T09:53:59.996Z,4896.00
2018-02-26T09:54:59.974Z,3976.00
2018-02-26T09:55:59.954Z,4516.00
2018-02-26T09:56:59.930Z,7240.00
2018-02-26T09:57:59.912Z,8888.00
2018-02-26T09:58:59.882Z,15552.00
2018-02-26T09:59:59.860Z,9700.00
2018-02-26T10:00:59.851Z,16928.00
2018-02-26T10:01:59.822Z,10148.00
2018-02-26T10:02:59.795Z,8152.00
2018-02-26T10:03:59.770Z,16384.00
2018-02-26T10:04:59.763Z,13992.00
2018-02-26T10:05:59.726Z,6920.00
2018-02-26T10:06:59.715Z,5460.00
2018-02-26T10:07:59.690Z,4328.00
2018-02-26T10:08:59.666Z,3824.00
2018-02-26T10:09:59.643Z,3632.00
2018-02-26T10:10:59.636Z,3496.00
2018-02-26T10:11:59.609Z,2664.00
2018-02-26T10:12:59.580Z,2324.00
2018-02-26T10:13:59.561Z,2288.00
2018-02-26T10:14:59.541Z,2664.00
2018-02-26T10:15:59.522Z,3008.00
2018-02-26T10:16:59.503Z,2552.00
2018-02-26T10:17:59.469Z,2500.00
2018-02-26T10:18:59.451Z,2360.00
2018-02-26T10:19:59.433Z,2504.00
2018-02-26T10:20:59.405Z,2556.00
2018-02-26T10:21:59.400Z,2708.00
2018-02-26T10:22:59.357Z,3060.00
2018-02-26T10:23:59.362Z,2560.00
2018-02-26T10:24:59.308Z,2964.00
2018-02-26T10:25:59.287Z,3576.00
2018-02-26T10:26:59.263Z,4600.00
2018-02-26T10:27:59.252Z,5284.00
2018-02-26T10:28:59.226Z,6284.00
2018-02-26T10:29:59.194Z,7488.00
2018-02-26T10:30:59.174Z,9164.00
2018-02-26T10:31:59.149Z,5644.00
2018-02-26T10:32:59.130Z,6124.00
2018-02-26T10:33:59.101Z,4728.00
2018-02-26T10:34:59.081Z,4456.00
2018-02-26T10:35:59.055Z,5596.00
2018-02-26T10:36:59.031Z,6256.00
2018-02-26T10:37:59.011Z,6620.00
2018-02-26T10:38:58.997Z,7032.00
2018-02-26T10:39:58.969Z,9920.00
2018-02-26T10:40:58.942Z,7996.00
2018-02-26T10:41:58.920Z,7864.00
2018-02-26T10:42:58.898Z,6376.00
2018-02-26T10:43:58.881Z,6064.00
2018-02-26T10:44:58.861Z,6664.00
2018-02-26T10:45:58.831Z,8052.00
2018-02-26T10:46:58.812Z,8888.00
2018-02-26T10:47:58.793Z,9080.00
2018-02-26T10:48:58.773Z,9212.00
2018-02-26T10:49:58.744Z,7284.00
2018-02-26T10:50:58.724Z,10572.00
2018-02-26T10:51:58.710Z,8036.00
2018-02-26T10:52:58.684Z,7496.00
2018-02-26T10:53:58.661Z,6300.00
2018-02-26T10:54:58.642Z,5324.00
2018-02-26T10:55:58.623Z,4596.00
2018-02-26T10:56:58.597Z,4076.00
2018-02-26T10:57:58.582Z,3816.00
2018-02-26T10:58:58.556Z,4136.00
2018-02-26T10:59:58.531Z,5600.00
2018-02-26T11:00:58.511Z,5504.00
2018-02-26T11:01:58.487Z,5136.00
2018-02-26T11:02:58.463Z,3756.00
2018-02-26T11:03:58.451Z,3572.00
2018-02-26T11:04:58.424Z,3600.00
2018-02-26T11:05:58.405Z,4464.00
2018-02-26T11:06:58.374Z,4836.00
2018-02-26T11:07:58.361Z,4364.00
2018-02-26T11:08:58.340Z,3832.00
2018-02-26T11:09:58.318Z,4084.00
2018-02-26T11:10:58.288Z,5196.00
2018-02-26T11:11:58.266Z,9660.00
2018-02-26T11:12:58.242Z,4244.00
2018-02-26T11:13:58.222Z,4396.00
2018-02-26T11:14:58.195Z,2944.00
2018-02-26T11:15:58.181Z,2836.00
2018-02-26T11:16:58.154Z,3196.00
2018-02-26T11:17:58.132Z,2900.00
2018-02-26T11:18:58.108Z,2960.00
2018-02-26T11:19:58.089Z,2716.00
2018-02-26T11:20:58.060Z,2640.00
2018-02-26T11:21:58.040Z,2288.00
2018-02-26T11:22:58.028Z,2076.00
2018-02-26T11:23:57.992Z,2136.00
2018-02-26T11:24:57.973Z,2460.00
2018-02-26T11:25:57.949Z,2952.00
2018-02-26T11:26:57.920Z,3500.00
2018-02-26T11:27:57.954Z,3660.00
2018-02-26T11:28:57.877Z,3684.00
2018-02-26T11:29:57.851Z,4456.00
2018-02-26T11:30:57.828Z,5664.00
2018-02-26T11:31:57.860Z,10304.00
2018-02-26T11:32:57.780Z,9676.00
2018-02-26T11:33:57.792Z,9016.00
2018-02-26T11:34:57.737Z,8256.00
2018-02-26T11:35:57.780Z,3220.00
2018-02-26T11:36:57.691Z,2984.00
2018-02-26T11:37:57.677Z,3328.00
2018-02-26T11:38:57.646Z,3360.00
2018-02-26T11:39:57.675Z,3592.00
2018-02-26T11:40:57.602Z,4508.00
2018-02-26T11:41:57.684Z,4072.00
2018-02-26T11:42:57.553Z,3612.00
2018-02-26T11:43:57.540Z,3748.00
2018-02-26T11:44:57.515Z,4496.00
2018-02-26T11:45:57.495Z,4948.00
2018-02-26T11:46:57.476Z,4520.00
2018-02-26T11:47:57.541Z,5044.00
2018-02-26T11:48:57.419Z,4724.00
2018-02-26T11:49:57.435Z,9740.00
2018-02-26T11:50:57.397Z,9696.00
2018-02-26T11:51:57.509Z,9300.00
2018-02-26T11:52:57.325Z,9144.00
2018-02-26T11:53:57.317Z,9244.00
2018-02-26T11:54:57.281Z,9568.00
2018-02-26T11:55:57.266Z,9624.00
2018-02-26T11:56:57.253Z,9324.00
2018-02-26T11:57:57.216Z,9272.00
2018-02-26T11:58:57.204Z,9916.00
2018-02-26T11:59:57.175Z,10964.00
2018-02-26T12:00:57.160Z,10544.00
2018-02-26T12:01:57.184Z,8164.00
2018-02-26T12:02:57.121Z,5108.00
2018-02-26T12:03:57.091Z,4964.00
2018-02-26T12:04:57.070Z,9872.00
2018-02-26T12:05:57.050Z,4392.00
2018-02-26T12:06:57.031Z,10240.00
2018-02-26T12:07:57.012Z,7392.00
2018-02-26T12:08:56.995Z,10404.00
2018-02-26T12:09:56.976Z,10632.00
2018-02-26T12:10:56.953Z,9748.00
2018-02-26T12:11:56.924Z,6028.00
2018-02-26T12:12:56.910Z,10404.00
2018-02-26T12:13:56.899Z,9384.00
2018-02-26T12:14:56.860Z,4136.00
2018-02-26T12:15:56.842Z,4004.00
2018-02-26T12:16:56.829Z,8404.00
2018-02-26T12:17:56.803Z,10028.00
2018-02-26T12:18:56.780Z,8972.00
2018-02-26T12:19:56.762Z,8080.00
2018-02-26T12:20:56.740Z,11328.00
2018-02-26T12:21:56.716Z,9708.00
2018-02-26T12:22:56.701Z,6568.00
2018-02-26T12:23:56.679Z,9192.00
2018-02-26T12:24:56.657Z,4612.00
2018-02-26T12:25:56.636Z,4596.00
2018-02-26T12:26:56.619Z,5072.00
2018-02-26T12:27:56.598Z,4168.00
2018-02-26T12:28:56.575Z,4012.00
2018-02-26T12:29:56.551Z,3924.00
2018-02-26T12:30:56.530Z,5656.00
2018-02-26T12:31:56.517Z,5004.00
2018-02-26T12:32:56.491Z,4188.00
2018-02-26T12:33:56.473Z,9816.00
2018-02-26T12:34:56.450Z,10048.00
2018-02-26T12:35:56.429Z,9980.00
2018-02-26T12:36:56.412Z,9928.00